Time;durP1;ratioP1;P1;durP2;ratioP2;P2;SDS_P1;SDS_P2;PMS_P1;PMS_P2;Temp;Humidity;BMP_temperature;BMP_pressure;BME280_temperature;BME280_humidity;BME280_pressure;Samples;Min_cycle;Max_cycle;Signal;HPM_P1;HPM_P2
2022/05/02 00:01:45;;;;;;;17.20;13.17;;;;;;;8.89;62.18;102026.34;5215405;28;20098;-76
2022/05/02 00:04:16;;;;;;;15.17;12.93;;;;;;;9.15;61.72;102027.22;5209343;28;20034;-76
2022/05/02 00:06:47;;;;;;;16.47;12.57;;;;;;;8.81;62.24;102029.19;5207602;28;20046;-76
2022/05/02 00:09:18;;;;;;;18.13;13.50;;;;;;;8.83;62.33;102029.19;5211633;28;20030;-76
2022/05/02 00:11:50;;;;;;;24.17;14.27;;;;;;;9.01;62.40;102018.97;5211809;28;20397;-76
2022/05/02 00:14:21;;;;;;;16.30;12.30;;;;;;;9.04;61.64;102013.69;5211269;28;20088;-76
2022/05/02 00:16:52;;;;;;;16.90;13.73;;;;;;;8.88;62.33;102019.44;5211871;28;20030;-76
2022/05/02 00:19:24;;;;;;;15.67;14.07;;;;;;;8.80;62.42;102022.28;5211806;28;20081;-76
2022/05/02 00:21:55;;;;;;;17.30;13.23;;;;;;;8.83;62.41;102013.50;5226423;28;20558;-75
2022/05/02 00:24:26;;;;;;;17.37;13.60;;;;;;;9.09;61.78;102022.22;5199901;28;20066;-76
2022/05/02 00:26:58;;;;;;;14.80;13.23;;;;;;;9.02;61.96;102011.13;5211591;28;20022;-76
2022/05/02 00:29:29;;;;;;;14.57;13.03;;;;;;;9.22;61.29;102027.84;5211067;28;20030;-76
2022/05/02 00:32:00;;;;;;;13.83;12.43;;;;;;;9.12;61.29;102016.88;5210339;28;20030;-76
2022/05/02 00:34:31;;;;;;;17.67;13.67;;;;;;;8.62;62.39;102008.09;5196963;28;20041;-76
2022/05/02 00:37:03;;;;;;;18.00;14.40;;;;;;;8.49;63.24;102020.66;5210224;28;20022;-76
2022/05/02 00:39:34;;;;;;;14.73;13.30;;;;;;;8.67;62.28;102011.41;5203553;28;20034;-76
2022/05/02 00:42:06;;;;;;;16.23;13.93;;;;;;;8.43;63.81;102011.25;5206768;28;20033;-76
2022/05/02 00:44:41;;;;;;;18.10;13.77;;;;;;;8.70;63.37;102008.69;5208033;28;20095;-76
2022/05/02 00:47:15;;;;;;;17.60;14.17;;;;;;;8.33;64.26;102002.00;5202541;28;20018;-77
2022/05/02 00:49:50;;;;;;;15.55;13.27;;;;;;;8.10;65.04;102000.97;5212587;28;20033;-76
2022/05/02 00:52:21;;;;;;;17.97;12.70;;;;;;;8.13;64.64;101995.66;5197995;28;20046;-76
2022/05/02 00:54:53;;;;;;;19.67;13.10;;;;;;;8.07;64.74;102001.91;5205589;28;20038;-77
2022/05/02 00:57:24;;;;;;;16.57;13.80;;;;;;;7.93;65.56;101999.72;5211599;28;20029;-76
2022/05/02 00:59:55;;;;;;;19.13;14.80;;;;;;;7.98;65.48;102002.19;5210551;28;20107;-76
2022/05/02 01:02:27;;;;;;;15.60;13.77;;;;;;;8.37;64.15;101993.19;5210523;28;20041;-76
2022/05/02 01:04:58;;;;;;;17.10;13.60;;;;;;;7.97;65.22;102001.34;5225245;28;20053;-76
2022/05/02 01:07:29;;;;;;;28.33;13.87;;;;;;;7.83;65.89;101998.28;5208952;28;20044;-76
2022/05/02 01:10:01;;;;;;;17.47;13.87;;;;;;;7.93;66.21;102010.16;5211130;28;20464;-76
2022/05/02 01:12:32;;;;;;;22.40;14.97;;;;;;;7.83;66.49;101995.69;5195684;28;20096;-76
2022/05/02 01:15:03;;;;;;;21.80;14.83;;;;;;;7.91;65.98;101993.69;5209223;28;20030;-76
2022/05/02 01:17:37;;;;;;;18.53;14.13;;;;;;;7.85;66.20;101993.91;5211450;28;20042;-76
2022/05/02 01:20:13;;;;;;;20.13;13.70;;;;;;;7.75;66.67;101999.38;5224688;28;20128;-76
2022/05/02 01:22:45;;;;;;;17.13;14.33;;;;;;;7.95;65.83;101992.72;5211133;28;20030;-76
2022/05/02 01:25:16;;;;;;;20.27;15.27;;;;;;;7.69;66.68;101993.47;5211210;28;20491;-76
2022/05/02 01:27:47;;;;;;;19.97;14.47;;;;;;;7.62;66.52;102003.25;5220220;28;20042;-77
2022/05/02 01:30:18;;;;;;;16.47;14.33;;;;;;;8.05;65.39;101989.81;5203759;28;20061;-76
2022/05/02 01:32:50;;;;;;;17.23;15.37;;;;;;;7.78;65.83;101989.75;5205188;28;20586;-77
2022/05/02 01:35:21;;;;;;;16.67;14.77;;;;;;;7.98;65.67;101991.75;5197611;28;20038;-76
2022/05/02 01:37:52;;;;;;;18.93;14.50;;;;;;;7.68;66.67;101994.41;5210063;28;20072;-75
2022/05/02 01:40:23;;;;;;;18.23;15.30;;;;;;;7.53;67.47;101991.31;5208802;28;20034;-76
2022/05/02 01:42:55;;;;;;;19.73;14.90;;;;;;;7.81;66.05;101990.53;5203535;28;20036;-76
2022/05/02 01:45:26;;;;;;;18.23;14.83;;;;;;;7.58;67.01;101985.97;5205440;28;20084;-76
2022/05/02 01:47:57;;;;;;;17.73;15.10;;;;;;;7.40;67.43;101990.78;5205430;28;20108;-76
2022/05/02 01:50:28;;;;;;;23.17;14.87;;;;;;;7.50;67.93;101992.25;5220170;28;20089;-76
2022/05/02 01:53:00;;;;;;;16.00;14.30;;;;;;;7.44;68.03;101991.56;5200379;28;20018;-76
2022/05/02 01:55:31;;;;;;;23.03;16.37;;;;;;;7.32;67.46;101993.63;5209050;28;20018;-76
2022/05/02 01:58:02;;;;;;;17.60;15.17;;;;;;;7.16;68.66;101987.97;5207806;28;20156;-76
2022/05/02 02:00:34;;;;;;;18.17;14.27;;;;;;;7.55;67.50;101980.84;5205234;28;20036;-76
2022/05/02 02:03:05;;;;;;;16.90;14.33;;;;;;;7.60;66.71;101978.97;5204882;28;20027;-76
2022/05/02 02:05:49;;;;;;;23.87;15.00;;;;;;;7.28;67.10;101978.13;5206521;28;20586;-76
2022/05/02 02:08:23;;;;;;;17.90;14.80;;;;;;;7.20;68.51;101976.59;5203364;28;20026;-76
2022/05/02 02:10:56;;;;;;;;;;;;;;;7.68;64.86;101982.19;5211689;28;20025;-76
2022/05/02 02:13:28;;;;;;;17.80;14.83;;;;;;;7.52;67.09;101975.72;5210310;28;19902;-75
2022/05/02 02:16:00;;;;;;;18.67;14.60;;;;;;;7.50;67.11;101983.59;5205151;28;20033;-72
2022/05/02 02:18:32;;;;;;;19.20;16.17;;;;;;;7.40;67.28;101975.16;5214365;28;20021;-74
2022/05/02 02:21:04;;;;;;;19.83;15.50;;;;;;;7.56;67.20;101979.94;5200525;28;20030;-75
2022/05/02 02:23:36;;;;;;;16.70;14.93;;;;;;;7.59;66.81;101985.09;5210283;28;20026;-74
2022/05/02 02:26:08;;;;;;;18.63;14.47;;;;;;;7.58;67.01;101983.34;5210326;28;20029;-74
2022/05/02 02:28:39;;;;;;;17.40;15.50;;;;;;;7.66;66.44;101984.00;5207608;28;20065;-74
2022/05/02 02:31:10;;;;;;;17.17;15.33;;;;;;;7.44;66.96;101966.38;5208490;28;20288;-75
2022/05/02 02:33:41;;;;;;;20.30;15.17;;;;;;;7.29;66.74;101983.28;5210252;28;20365;-74
2022/05/02 02:36:13;;;;;;;19.37;14.90;;;;;;;7.44;67.44;101973.31;5200796;28;20034;-74
2022/05/02 02:38:44;;;;;;;18.47;15.17;;;;;;;7.22;67.86;101979.13;5210788;28;20412;-75
2022/05/02 02:41:15;;;;;;;17.13;15.43;;;;;;;7.24;68.03;101965.16;5199029;28;20579;-74
2022/05/02 02:43:46;;;;;;;18.17;14.97;;;;;;;7.11;68.97;101979.44;5202163;28;20531;-75
2022/05/02 02:46:18;;;;;;;19.20;15.43;;;;;;;6.82;69.79;101976.72;5196920;28;20505;-74
2022/05/02 02:48:49;;;;;;;21.17;16.37;;;;;;;6.91;69.71;101967.81;5211074;28;20030;-74
2022/05/02 02:51:20;;;;;;;16.97;15.23;;;;;;;6.87;69.40;101967.03;5219168;28;20045;-75
2022/05/02 02:53:52;;;;;;;21.80;16.13;;;;;;;6.87;69.70;101959.22;5212782;28;20030;-75
2022/05/02 02:56:23;;;;;;;24.00;16.23;;;;;;;6.80;69.78;101948.97;5229147;28;20033;-74
2022/05/02 02:58:54;;;;;;;20.57;17.00;;;;;;;6.76;70.79;101958.63;5210433;28;20026;-75
2022/05/02 03:01:26;;;;;;;24.10;16.83;;;;;;;6.66;70.81;101958.00;5201730;28;20039;-75
2022/05/02 03:03:57;;;;;;;18.67;16.50;;;;;;;6.89;69.67;101948.75;5204644;28;20526;-74
2022/05/02 03:06:30;;;;;;;21.57;16.83;;;;;;;6.66;70.28;101947.59;5213209;28;20076;-74
2022/05/02 03:09:01;;;;;;;20.53;16.63;;;;;;;6.96;69.42;101950.31;5213866;28;20022;-74
2022/05/02 03:11:32;;;;;;;23.00;15.43;;;;;;;6.99;69.35;101955.44;5208142;28;20092;-75
2022/05/02 03:14:03;;;;;;;18.53;15.10;;;;;;;6.88;69.51;101941.81;5208881;28;20056;-75
2022/05/02 03:16:35;;;;;;;18.60;15.17;;;;;;;6.56;69.97;101940.91;5213529;28;20405;-74
2022/05/02 03:19:06;;;;;;;19.13;15.73;;;;;;;6.60;69.60;101948.59;5212982;28;20509;-74
2022/05/02 03:21:37;;;;;;;18.27;15.80;;;;;;;6.35;70.91;101941.41;5227729;28;20026;-74
2022/05/02 03:24:08;;;;;;;21.17;16.70;;;;;;;6.62;70.53;101948.56;5213271;28;20030;-74
2022/05/02 03:26:40;;;;;;;20.23;16.13;;;;;;;6.38;71.20;101948.28;5212825;28;20018;-74
2022/05/02 03:29:11;;;;;;;23.87;16.47;;;;;;;6.69;70.49;101952.72;5211926;28;20026;-74
2022/05/02 03:31:42;;;;;;;18.33;15.83;;;;;;;6.71;70.69;101947.47;5225816;28;20026;-74
2022/05/02 03:34:13;;;;;;;26.30;17.80;;;;;;;6.34;71.57;101946.63;5204236;28;20029;-74
2022/05/02 03:36:45;;;;;;;24.13;17.13;;;;;;;6.34;71.46;101941.44;5209534;28;20495;-74
2022/05/02 03:39:16;;;;;;;25.13;18.07;;;;;;;6.55;71.47;101947.84;5209080;28;20048;-74
2022/05/02 03:41:49;;;;;;;20.93;15.53;;;;;;;6.38;71.18;101948.28;5210653;28;20025;-74
2022/05/02 03:44:20;;;;;;;24.53;17.57;;;;;;;6.45;71.46;101939.44;5209261;28;20485;-74
2022/05/02 03:46:51;;;;;;;18.63;16.63;;;;;;;6.40;71.83;101942.16;5210263;28;20033;-74
2022/05/02 03:49:23;;;;;;;26.50;17.23;;;;;;;6.37;72.17;101946.59;5210586;28;20113;-74
2022/05/02 03:51:54;;;;;;;20.70;17.60;;;;;;;6.14;72.75;101945.38;5207090;28;20041;-75
2022/05/02 03:54:25;;;;;;;22.50;17.13;;;;;;;6.20;72.58;101940.03;5205172;28;20129;-74
2022/05/02 03:56:57;;;;;;;22.17;16.13;;;;;;;6.38;71.40;101932.66;5212863;28;20101;-74
2022/05/02 03:59:28;;;;;;;20.70;16.97;;;;;;;6.50;70.99;101947.97;5211864;28;20030;-74
2022/05/02 04:02:00;;;;;;;22.43;16.17;;;;;;;6.48;71.29;101939.34;5211057;28;20042;-73
2022/05/02 04:04:31;;;;;;;21.83;16.67;;;;;;;6.40;71.74;101936.09;5210811;28;20128;-74
2022/05/02 04:07:02;;;;;;;21.43;17.17;;;;;;;6.45;70.87;101946.38;5209340;28;20042;-74
2022/05/02 04:09:34;;;;;;;21.73;16.80;;;;;;;6.20;72.10;101928.75;5210913;28;20026;-75
2022/05/02 04:12:05;;;;;;;18.53;16.07;;;;;;;6.35;71.56;101950.97;5210852;28;20026;-74
2022/05/02 04:14:37;;;;;;;17.70;15.30;;;;;;;6.14;72.24;101948.81;5203379;28;20045;-75
2022/05/02 04:17:09;;;;;;;23.73;16.93;;;;;;;6.12;73.15;101945.41;5202785;28;20401;-74
2022/05/02 04:19:40;;;;;;;23.13;17.37;;;;;;;5.85;74.12;101941.66;5209508;28;20568;-74
2022/05/02 04:22:12;;;;;;;20.07;16.17;;;;;;;6.27;71.94;101941.59;5205697;28;20100;-74
2022/05/02 04:24:43;;;;;;;21.80;15.13;;;;;;;6.24;71.98;101941.66;5212532;28;20544;-74
2022/05/02 04:27:14;;;;;;;22.33;18.57;;;;;;;6.19;72.37;101938.31;5228529;28;20037;-74
2022/05/02 04:29:46;;;;;;;18.67;16.47;;;;;;;6.13;72.91;101935.84;5211874;28;20109;-74
2022/05/02 04:32:17;;;;;;;21.60;17.53;;;;;;;6.04;73.14;101949.88;5204168;28;20022;-74
2022/05/02 04:34:48;;;;;;;24.40;18.27;;;;;;;5.89;73.65;101940.69;5223871;28;20030;-74
2022/05/02 04:37:19;;;;;;;21.50;17.40;;;;;;;6.27;72.81;101941.59;5206130;28;20037;-74
2022/05/02 04:39:51;;;;;;;25.07;16.87;;;;;;;6.03;73.80;101938.66;5199920;28;20408;-74
2022/05/02 04:42:23;;;;;;;20.70;16.57;;;;;;;6.34;72.55;101941.44;5203293;28;20424;-75
2022/05/02 04:44:54;;;;;;;19.60;17.30;;;;;;;6.43;72.39;101943.81;5205800;28;20022;-75
2022/05/02 04:47:25;;;;;;;24.47;19.57;;;;;;;6.11;73.79;101935.88;5209795;28;20065;-75
2022/05/02 04:49:56;;;;;;;25.60;17.83;;;;;;;6.14;73.90;101930.59;5211205;28;20033;-74
2022/05/02 04:52:28;;;;;;;21.30;17.53;;;;;;;6.43;73.00;101946.41;5210011;28;20017;-75
2022/05/02 04:54:59;;;;;;;21.47;17.20;;;;;;;6.36;73.69;101945.72;5211676;28;20033;-72
2022/05/02 04:57:30;;;;;;;22.53;18.07;;;;;;;6.42;73.31;101944.72;5205731;28;20093;-74
2022/05/02 05:00:03;;;;;;;22.43;18.47;;;;;;;6.36;73.96;101950.91;5203426;28;20045;-74
2022/05/02 05:02:34;;;;;;;26.23;19.40;;;;;;;6.48;73.48;101939.34;5205562;28;20496;-74
2022/05/02 05:05:07;;;;;;;23.43;18.63;;;;;;;6.53;73.93;101954.84;5209568;28;20081;-74
2022/05/02 05:07:39;;;;;;;23.47;18.90;;;;;;;6.65;73.42;101951.94;5207517;28;20029;-74
2022/05/02 05:10:11;;;;;;;23.80;19.30;;;;;;;6.63;73.83;101952.88;5205280;28;20019;-74
2022/05/02 05:13:07;;;;;;;26.47;19.33;;;;;;;6.64;74.28;101957.19;5206935;28;20092;-74
2022/05/02 05:18:56;;;;;;;25.57;20.73;;;;;;;6.83;73.71;101954.97;5201072;28;20496;-74
2022/05/02 05:21:44;;;;;;;27.50;23.53;;;;;;;6.88;73.83;101957.44;5206103;28;20030;-74
2022/05/02 05:24:46;;;;;;;25.63;21.20;;;;;;;6.91;73.92;101960.00;5206067;28;20034;-74
2022/05/02 05:27:47;;;;;;;28.00;23.13;;;;;;;6.87;74.98;101960.97;5211299;28;20105;-74
2022/05/02 05:30:23;;;;;;;31.27;24.10;;;;;;;6.83;76.53;101954.09;5198286;28;20583;-74
2022/05/02 05:33:29;;;;;;;31.63;24.73;;;;;;;7.01;74.95;101951.03;5206136;28;20084;-74
2022/05/02 05:36:15;;;;;;;28.23;24.07;;;;;;;6.99;75.56;101936.31;5195532;28;20401;-74
2022/05/02 05:38:49;;;;;;;33.37;25.73;;;;;;;7.10;75.93;101957.72;5200362;28;20034;-74
2022/05/02 05:41:35;;;;;;;28.42;24.33;;;;;;;7.12;76.74;101952.50;5219773;28;20038;-74
2022/05/02 05:44:28;;;;;;;29.67;24.43;;;;;;;7.17;76.63;101948.00;5209800;28;20603;-74
2022/05/02 05:47:12;;;;;;;31.33;25.77;;;;;;;7.28;75.94;101949.47;5225781;28;20014;-73
2022/05/02 05:50:09;;;;;;;29.65;25.02;;;;;;;7.33;75.50;101956.22;5224710;28;20033;-74
2022/05/02 05:52:58;;;;;;;29.33;24.87;;;;;;;7.33;75.85;101960.63;5208177;28;20436;-74
2022/05/02 05:55:43;;;;;;;32.93;25.33;;;;;;;7.25;76.33;101955.59;5210835;28;20481;-74
2022/05/02 05:58:52;;;;;;;28.25;25.15;;;;;;;7.44;75.49;101966.38;5205750;28;20083;-74
2022/05/02 06:02:06;;;;;;;27.13;22.87;;;;;;;7.49;75.97;101964.47;5200803;28;20108;-74
2022/05/02 06:04:41;;;;;;;29.93;25.17;;;;;;;7.54;76.59;101963.50;5208616;28;20030;-74
2022/05/02 06:07:12;;;;;;;35.97;26.07;;;;;;;7.54;76.92;101960.91;5206127;28;20041;-77
2022/05/02 06:09:44;;;;;;;30.43;23.43;;;;;;;7.66;76.25;101959.69;5202210;28;20026;-74
2022/05/02 06:12:19;;;;;;;31.87;26.67;;;;;;;7.70;77.23;101969.09;5209539;28;20386;-75
2022/05/02 06:20:39;;;;;;;29.63;24.67;;;;;;;7.84;77.01;101956.50;5215609;28;20093;-74
2022/05/02 06:23:13;;;;;;;30.03;23.27;;;;;;;7.91;76.81;101965.00;5219443;28;20037;-75
2022/05/02 06:25:49;;;;;;;29.45;23.58;;;;;;;7.95;76.84;101964.03;5229851;28;20022;-75
2022/05/02 06:28:30;;;;;;;26.97;23.57;;;;;;;7.99;76.57;101960.41;5213114;28;20029;-74
2022/05/02 06:31:03;;;;;;;28.07;22.90;;;;;;;8.12;76.25;101965.25;5208126;28;20057;-75
2022/05/02 06:33:34;;;;;;;31.43;24.30;;;;;;;8.17;76.39;101965.13;5223816;28;20034;-74
2022/05/02 06:36:12;;;;;;;27.97;22.63;;;;;;;8.21;75.81;101961.47;5213149;28;20099;-74
2022/05/02 06:38:59;;;;;;;28.23;24.00;;;;;;;8.31;76.56;101962.03;5208456;28;20293;-74
2022/05/02 06:42:08;;;;;;;28.17;22.30;;;;;;;8.43;75.42;101961.63;5212658;28;20042;-75
2022/05/02 06:45:07;;;;;;;28.77;22.03;;;;;;;8.52;75.37;101965.72;5212497;28;20089;-75
2022/05/02 06:48:10;;;;;;;26.30;20.53;;;;;;;8.64;74.25;101964.47;5214015;28;20754;-75
2022/05/02 06:50:47;;;;;;;28.13;20.73;;;;;;;8.77;74.45;101969.28;5214645;28;20054;-74
2022/05/02 06:53:41;;;;;;;28.30;21.77;;;;;;;8.84;73.76;101965.56;5212259;28;20026;-74
2022/05/02 06:56:12;;;;;;;25.17;20.53;;;;;;;8.94;73.04;101964.34;5213202;28;20460;-74
2022/05/02 06:59:06;;;;;;;27.63;20.30;;;;;;;9.10;73.21;101965.53;5204972;28;20022;-74
2022/05/02 07:01:43;;;;;;;25.50;20.47;;;;;;;9.26;71.49;101960.63;5198182;28;20033;-74
2022/05/02 07:04:49;;;;;;;28.30;20.57;;;;;;;9.40;71.75;101960.13;5202141;28;20526;-75
2022/05/02 07:07:39;;;;;;;27.10;19.57;;;;;;;9.60;71.49;101956.75;5200634;28;20110;-75
2022/05/02 07:10:17;;;;;;;21.70;18.47;;;;;;;9.82;70.80;101955.94;5200373;28;20499;-75
2022/05/02 07:13:09;;;;;;;23.53;19.37;;;;;;;10.17;69.60;101953.69;5201711;28;20045;-75
2022/05/02 07:15:51;;;;;;;29.20;20.73;;;;;;;10.47;67.77;101959.50;5187861;28;20041;-74
2022/05/02 07:18:37;;;;;;;20.47;17.67;;;;;;;10.82;66.71;101956.34;5202152;28;20033;-74
2022/05/02 07:21:20;;;;;;;22.83;16.20;;;;;;;11.21;64.43;101960.75;5199706;28;20116;-75
2022/05/02 07:24:17;;;;;;;20.90;17.10;;;;;;;11.55;63.94;101953.13;5208855;28;20060;-75
2022/05/02 07:27:16;;;;;;;18.80;15.40;;;;;;;12.19;62.25;101951.94;5202417;28;20488;-77
2022/05/02 07:29:49;;;;;;;19.47;15.33;;;;;;;12.55;58.76;101945.75;5200715;28;20034;-78
2022/05/02 07:32:24;;;;;;;21.53;15.80;;;;;;;13.25;58.08;101946.56;5201493;28;20157;-78
2022/05/02 07:34:56;;;;;;;;;;;;;;;13.91;59.08;101945.72;5206263;28;20388;-77
2022/05/02 07:37:31;;;;;;;15.83;13.80;;;;;;;14.42;53.35;101947.19;5211327;28;19921;-78
2022/05/02 07:40:05;;;;;;;17.03;12.93;;;;;;;14.97;50.61;101947.50;5206984;28;20033;-76
2022/05/02 07:42:37;;;;;;;;;;;;;;;15.88;53.23;101947.19;5209147;28;20088;-74
2022/05/02 07:45:10;;;;;;;16.70;12.40;;;;;;;16.16;48.07;101939.25;5209787;28;19921;-75
2022/05/02 07:47:43;;;;;;;14.93;11.18;;;;;;;16.77;45.88;101948.44;5213601;28;20030;-76
2022/05/02 07:50:16;;;;;;;16.50;11.40;;;;;;;17.45;45.83;101947.31;5210854;28;20024;-76
2022/05/02 07:52:49;;;;;;;14.70;11.37;;;;;;;17.90;43.55;101952.00;5213160;28;20055;-77
2022/05/02 07:55:22;;;;;;;13.13;11.73;;;;;;;18.01;43.47;101943.25;5210844;28;20018;-78
2022/05/02 07:57:56;;;;;;;16.20;10.57;;;;;;;18.81;40.68;101950.59;5210716;28;20121;-76
2022/05/02 08:00:28;;;;;;;16.23;10.52;;;;;;;18.89;39.07;101948.19;5208839;28;20116;-76
2022/05/02 08:02:59;;;;;;;13.63;10.97;;;;;;;19.19;39.00;101953.88;5209576;28;20526;-74
2022/05/02 08:05:31;;;;;;;12.77;11.05;;;;;;;19.61;36.90;101952.34;5212564;28;20048;-76
2022/05/02 08:08:17;;;;;;;13.13;11.05;;;;;;;20.38;38.18;101945.19;5211918;28;20060;-76
2022/05/02 08:11:03;;;;;;;15.25;10.50;;;;;;;21.00;36.61;101944.41;5212974;28;20479;-76
2022/05/02 08:13:42;;;;;;;13.10;10.07;;;;;;;21.31;34.18;101948.00;5212231;28;20030;-76
2022/05/02 08:16:22;;;;;;;13.77;9.73;;;;;;;21.59;35.00;101943.69;5212147;28;20037;-73
2022/05/02 08:19:22;;;;;;;112.60;37.65;;;;;;;21.64;33.16;101944.13;5210353;28;20507;-73
2022/05/02 08:28:23;;;;;;;12.30;9.73;;;;;;;22.40;31.98;101940.88;5221185;28;20042;-73
2022/05/02 08:31:12;;;;;;;10.57;9.27;;;;;;;22.93;31.35;101946.66;5210165;28;20405;-73
2022/05/02 08:33:59;;;;;;;14.68;9.23;;;;;;;23.19;30.59;101940.63;5211650;28;20539;-74
2022/05/02 08:36:46;;;;;;;10.27;8.50;;;;;;;22.99;30.78;101947.06;5209072;28;20045;-75
2022/05/02 08:39:31;;;;;;;13.63;9.35;;;;;;;23.91;29.91;101944.34;5209763;28;20509;-80
2022/05/02 08:42:28;;;;;;;12.80;9.27;;;;;;;24.34;29.16;101942.84;5203572;28;20041;-74
2022/05/02 08:45:35;;;;;;;11.07;9.15;;;;;;;24.04;29.84;101943.09;5199370;28;20553;-74
2022/05/02 08:48:45;;;;;;;13.25;9.25;;;;;;;24.69;29.92;101940.19;5211606;28;20037;-75
2022/05/02 08:51:22;;;;;;;9.98;8.98;;;;;;;24.14;27.96;101943.84;5189922;28;20062;-74
2022/05/02 08:54:26;;;;;;;11.23;7.93;;;;;;;24.87;28.97;101929.41;5207819;28;20037;-72
2022/05/02 08:57:15;;;;;;;13.20;8.02;;;;;;;25.16;27.86;101940.75;5202250;28;20040;-72
2022/05/02 09:00:24;;;;;;;9.15;8.02;;;;;;;25.57;28.06;101943.53;5208973;28;20116;-72
2022/05/02 09:03:10;;;;;;;13.13;8.77;;;;;;;25.69;25.44;101937.88;5208984;28;20411;-73
2022/05/02 09:06:01;;;;;;;12.35;8.18;;;;;;;26.07;26.85;101932.84;5208367;28;20042;-73
2022/05/02 09:09:10;;;;;;;8.90;8.00;;;;;;;26.64;25.86;101934.75;5211204;28;20399;-73
2022/05/02 09:12:21;;;;;;;8.93;7.68;;;;;;;26.84;25.76;101920.91;5217841;28;20034;-74
2022/05/02 09:15:31;;;;;;;10.77;7.22;;;;;;;26.44;25.39;101933.28;5210957;28;20100;-77
2022/05/02 09:18:44;;;;;;;8.32;6.85;;;;;;;26.76;24.62;101937.91;5204153;28;20045;-77
2022/05/02 09:21:41;;;;;;;8.02;6.88;;;;;;;26.85;24.46;101934.16;5195851;28;20816;-78
2022/05/02 09:24:45;;;;;;;9.75;7.13;;;;;;;27.64;23.98;101942.31;5210015;28;20412;-78
2022/05/02 09:28:01;;;;;;;11.10;7.47;;;;;;;28.14;21.92;101933.81;5210004;28;20388;-78
2022/05/02 09:30:44;;;;;;;7.50;6.63;;;;;;;27.12;23.13;101923.16;5159193;28;20459;-72
2022/05/02 09:33:31;;;;;;;13.98;7.78;;;;;;;27.57;23.04;101933.28;5205594;28;20088;-79
2022/05/02 09:36:22;;;;;;;10.80;7.30;;;;;;;27.45;22.59;101933.72;5207346;28;20057;-79
2022/05/02 09:39:14;;;;;;;10.05;7.35;;;;;;;27.83;23.07;101924.88;5209032;28;20049;-78
2022/05/02 09:42:04;;;;;;;10.02;6.72;;;;;;;27.57;21.88;101928.75;5208737;28;20527;-79
2022/05/02 09:51:14;;;;;;;12.13;7.80;;;;;;;27.84;22.45;101904.19;5203555;28;20033;-80
2022/05/02 09:56:37;;;;;;;9.53;7.43;;;;;;;28.82;21.46;101908.66;5210464;28;20049;-80
2022/05/02 09:57:17;;;;;;;9.13;7.47;;;;;;;28.08;20.42;101913.88;5222179;28;20052;-80
2022/05/02 10:01:06;;;;;;;11.48;7.18;;;;;;;27.14;20.94;101905.00;5210479;28;20428;-80
2022/05/02 10:02:46;;;;;;;7.38;6.65;;;;;;;28.56;20.28;101903.78;5203687;28;20049;-79
2022/05/02 10:05:36;;;;;;;7.78;6.95;;;;;;;28.73;21.03;101902.53;5207836;28;20038;-80
2022/05/02 10:08:20;;;;;;;6.78;6.07;;;;;;;28.21;20.76;101910.53;5202284;28;20041;-80
2022/05/02 10:11:05;;;;;;;11.95;6.82;;;;;;;28.03;20.51;101909.03;5208033;28;20034;-80
2022/05/02 10:14:03;;;;;;;9.75;6.55;;;;;;;28.93;21.30;101893.88;5208942;28;20485;-80
2022/05/02 10:16:41;;;;;;;12.10;5.63;;;;;;;29.43;19.64;101898.53;5210472;28;20707;-80
2022/05/02 10:19:49;;;;;;;8.45;5.47;;;;;;;29.74;20.34;101911.91;5210658;28;20069;-80
2022/05/02 10:22:43;;;;;;;8.48;5.97;;;;;;;29.27;19.98;101901.50;5216514;28;20562;-81
2022/05/02 10:25:18;;;;;;;;;;;;;;;30.60;19.64;101899.16;5225515;28;20144;-80
2022/05/02 10:28:28;;;;;;;7.70;5.78;;;;;;;30.13;20.20;101905.13;5209543;28;19917;-80
2022/05/02 10:31:09;;;;;;;6.47;5.75;;;;;;;30.40;18.74;101899.06;5146792;29;20126;-72
2022/05/02 10:33:48;;;;;;;6.75;6.07;;;;;;;29.55;19.14;101898.03;5182497;28;20513;-80
2022/05/02 10:36:23;;;;;;;9.85;6.70;;;;;;;29.64;18.78;101899.59;5204259;28;20595;-81
2022/05/02 10:39:01;;;;;;;10.32;6.75;;;;;;;28.52;18.48;101894.41;5209442;28;20109;-79
2022/05/02 10:41:52;;;;;;;7.43;6.20;;;;;;;29.71;19.21;101895.06;5209606;28;20049;-80
2022/05/02 10:44:45;;;;;;;7.50;6.70;;;;;;;28.50;19.31;101891.91;5208128;28;20037;-80
2022/05/02 10:47:20;;;;;;;6.85;6.22;;;;;;;28.03;19.20;101882.09;5195308;28;20095;-81
2022/05/02 10:50:15;;;;;;;9.13;6.25;;;;;;;27.78;20.10;101874.28;5207909;28;20121;-80
2022/05/02 10:52:46;;;;;;;8.48;6.20;;;;;;;28.01;19.52;101881.44;5209429;28;20026;-80
2022/05/02 10:55:38;;;;;;;13.65;6.75;;;;;;;28.37;20.37;101876.38;5209346;28;20024;-81
2022/05/02 10:58:11;;;;;;;7.57;6.60;;;;;;;28.27;20.06;101861.34;5208946;28;20038;-80
2022/05/02 11:01:05;;;;;;;6.88;6.13;;;;;;;28.91;19.81;101874.34;5211063;28;20026;-79
2022/05/02 11:04:14;;;;;;;8.35;6.32;;;;;;;28.11;20.88;101866.88;5207294;28;20060;-80
2022/05/02 11:07:03;;;;;;;12.48;7.03;;;;;;;28.45;19.72;101868.19;5213493;28;20057;-80
2022/05/02 11:09:55;;;;;;;10.43;6.82;;;;;;;28.08;20.17;101862.72;5195378;28;20089;-81
2022/05/02 11:12:31;;;;;;;14.02;7.50;;;;;;;27.32;20.33;101863.56;5208347;28;20049;-81
2022/05/02 11:15:05;;;;;;;10.85;7.43;;;;;;;27.36;20.06;101870.22;5195608;28;20057;-81
2022/05/02 11:18:08;;;;;;;9.80;5.95;;;;;;;28.26;20.36;101861.50;5213756;28;20587;-80
2022/05/02 11:20:54;;;;;;;9.63;6.90;;;;;;;26.91;21.11;101862.75;5180311;28;20069;-80
2022/05/02 11:23:29;;;;;;;9.95;6.38;;;;;;;27.02;20.73;101854.28;5210996;28;20026;-79
2022/05/02 11:26:12;;;;;;;9.60;6.68;;;;;;;27.05;21.01;101856.63;5208080;28;20037;-78
2022/05/02 11:29:02;;;;;;;9.40;6.82;;;;;;;26.90;21.20;101850.31;5203848;28;20030;-79
2022/05/02 11:32:09;;;;;;;11.65;6.38;;;;;;;26.39;21.37;101849.72;5210804;28;20665;-80
2022/05/02 11:35:11;;;;;;;8.15;6.68;;;;;;;26.56;21.55;101844.31;5213120;28;20389;-79
2022/05/02 11:37:54;;;;;;;11.00;6.78;;;;;;;26.99;20.55;101841.22;5201040;28;20482;-79
2022/05/02 11:40:30;;;;;;;7.15;6.45;;;;;;;27.18;19.90;101836.41;5211117;28;20038;-79
2022/05/02 11:43:03;;;;;;;10.98;6.43;;;;;;;26.76;20.63;101843.88;5211236;28;20025;-78
2022/05/02 11:45:43;;;;;;;9.35;7.05;;;;;;;26.23;21.84;101829.13;5213657;28;20040;-79
2022/05/02 11:48:20;;;;;;;13.38;7.78;;;;;;;26.35;21.33;101845.72;5211030;28;20022;-79
2022/05/02 11:50:56;;;;;;;8.45;7.15;;;;;;;25.94;21.93;101838.56;5212771;28;20033;-78
2022/05/02 11:53:34;;;;;;;8.45;7.40;;;;;;;25.91;22.17;101828.19;5216717;28;20042;-78
2022/05/02 11:56:05;;;;;;;8.35;6.85;;;;;;;25.82;22.18;101836.25;5215653;28;20025;-79
2022/05/02 11:59:04;;;;;;;14.38;7.07;;;;;;;26.54;21.54;101840.94;5212074;28;20030;-79
2022/05/02 12:01:41;;;;;;;9.50;7.18;;;;;;;25.53;22.11;101836.75;5212691;28;20034;-78
2022/05/02 12:04:16;;;;;;;8.25;6.35;;;;;;;25.22;22.61;101827.53;5212378;28;20435;-79
2022/05/02 12:07:00;;;;;;;8.15;7.35;;;;;;;25.78;21.77;101816.13;5212928;28;20050;-78
2022/05/02 12:09:34;;;;;;;8.55;6.72;;;;;;;25.11;22.67;101826.00;5212672;28;20037;-79
2022/05/02 12:12:09;;;;;;;9.82;7.95;;;;;;;25.25;22.66;101827.19;5209371;28;20489;-78
2022/05/02 12:14:42;;;;;;;8.32;7.32;;;;;;;25.08;23.00;101824.47;5210665;28;20059;-78
2022/05/02 12:17:13;;;;;;;16.35;8.95;;;;;;;25.77;22.31;101817.16;5210849;28;20259;-78
2022/05/02 12:19:44;;;;;;;10.27;7.35;;;;;;;24.72;23.29;101827.38;5211381;28;20034;-78
2022/05/02 12:22:22;;;;;;;9.75;7.10;;;;;;;25.82;22.23;101816.63;5212213;28;20033;-78
2022/05/02 12:25:03;;;;;;;12.43;6.97;;;;;;;25.12;23.06;101817.81;5212859;28;20026;-79
2022/05/02 12:27:35;;;;;;;10.68;7.60;;;;;;;25.09;23.19;101807.41;5211939;28;20040;-78
2022/05/02 12:30:12;;;;;;;11.43;7.25;;;;;;;24.99;23.72;101817.44;5210888;28;20029;-78
2022/05/02 12:32:45;;;;;;;13.63;8.38;;;;;;;24.24;23.29;101814.50;5211158;28;20409;-79
2022/05/02 12:35:19;;;;;;;8.25;7.45;;;;;;;24.66;23.25;101820.88;5226277;28;20476;-78
2022/05/02 12:37:52;;;;;;;9.40;7.93;;;;;;;24.11;22.85;101815.72;5212561;28;20496;-78